Terminal Aerodrome Forecast
Issued by NWS Charleston, SC

Home | Current Version | Previous Version | Text Only | Print | Product List | Glossary On
Versions: 1 2 3 4 5 6 7 8 9 10 11 12 13 14 15 16 17 18 19 20 21
000
FTUS42 KCHS 280535
TAFSAV
TAF
KSAV 280535Z 2806/2906 05004KT P6SM FEW005
     FM280900 VRB03KT 3SM BR SCT004
      TEMPO 2810/2812 1SM BR SCT002
     FM281330 03005KT P6SM SCT025
     FM281800 10008KT P6SM SCT040=

USA.gov is the U.S. government's official web portal to all federal, state and local government web resources and services.